sensor_id;sensor_type;location;lat;lon;timestamp;pressure;altitude;pressure_sealevel;temperature;humidity
65897;BME280;52677;50.898;10.854;2022-10-19T00:01:22;99677.38;;;8.79;100.00
65897;BME280;52677;50.898;10.854;2022-10-19T00:03:23;99676.41;;;8.75;100.00
65897;BME280;52677;50.898;10.854;2022-10-19T00:05:23;99680.00;;;8.76;100.00
65897;BME280;52677;50.898;10.854;2022-10-19T00:07:23;99684.13;;;8.69;100.00
65897;BME280;52677;50.898;10.854;2022-10-19T00:09:24;99683.31;;;8.69;100.00
65897;BME280;52677;50.898;10.854;2022-10-19T00:11:25;99682.34;;;8.65;100.00
65897;BME280;52677;50.898;10.854;2022-10-19T00:13:25;99675.56;;;8.62;100.00
65897;BME280;52677;50.898;10.854;2022-10-19T00:15:25;99674.25;;;8.60;100.00
65897;BME280;52677;50.898;10.854;2022-10-19T00:17:25;99672.19;;;8.57;100.00
65897;BME280;52677;50.898;10.854;2022-10-19T00:19:26;99676.09;;;8.56;100.00
65897;BME280;52677;50.898;10.854;2022-10-19T00:21:27;99676.97;;;8.48;100.00
65897;BME280;52677;50.898;10.854;2022-10-19T00:23:28;99675.53;;;8.41;100.00
65897;BME280;52677;50.898;10.854;2022-10-19T00:25:28;99682.88;;;8.37;100.00
65897;BME280;52677;50.898;10.854;2022-10-19T00:27:28;99674.75;;;8.32;100.00
65897;BME280;52677;50.898;10.854;2022-10-19T00:29:28;99672.16;;;8.27;100.00
65897;BME280;52677;50.898;10.854;2022-10-19T00:31:29;99666.19;;;8.25;100.00
65897;BME280;52677;50.898;10.854;2022-10-19T00:33:29;99680.13;;;8.29;100.00
65897;BME280;52677;50.898;10.854;2022-10-19T00:35:29;99674.94;;;8.27;100.00
65897;BME280;52677;50.898;10.854;2022-10-19T00:37:30;99676.41;;;8.25;100.00
65897;BME280;52677;50.898;10.854;2022-10-19T00:39:30;99671.13;;;8.20;100.00
65897;BME280;52677;50.898;10.854;2022-10-19T00:41:32;99667.38;;;8.15;100.00
65897;BME280;52677;50.898;10.854;2022-10-19T00:43:50;99674.56;;;8.08;100.00
65897;BME280;52677;50.898;10.854;2022-10-19T00:45:51;99678.13;;;8.08;100.00
65897;BME280;52677;50.898;10.854;2022-10-19T00:47:51;99676.34;;;8.12;100.00
65897;BME280;52677;50.898;10.854;2022-10-19T00:49:52;99676.00;;;8.14;100.00
65897;BME280;52677;50.898;10.854;2022-10-19T00:51:56;99688.34;;;8.08;100.00
65897;BME280;52677;50.898;10.854;2022-10-19T00:53:57;99676.69;;;8.02;100.00
65897;BME280;52677;50.898;10.854;2022-10-19T00:56:02;99677.38;;;7.99;100.00
65897;BME280;52677;50.898;10.854;2022-10-19T00:58:04;99666.03;;;7.92;100.00
65897;BME280;52677;50.898;10.854;2022-10-19T01:00:06;99678.72;;;7.84;100.00
65897;BME280;52677;50.898;10.854;2022-10-19T01:02:07;99681.19;;;7.77;100.00
65897;BME280;52677;50.898;10.854;2022-10-19T01:04:08;99678.63;;;7.72;100.00
65897;BME280;52677;50.898;10.854;2022-10-19T01:06:11;99671.00;;;7.69;100.00
65897;BME280;52677;50.898;10.854;2022-10-19T01:08:12;99666.50;;;7.65;100.00
65897;BME280;52677;50.898;10.854;2022-10-19T01:10:13;99672.66;;;7.62;100.00
65897;BME280;52677;50.898;10.854;2022-10-19T01:19:54;99678.72;;;7.84;100.00
65897;BME280;52677;50.898;10.854;2022-10-19T01:27:06;99672.06;;;7.85;100.00
65897;BME280;52677;50.898;10.854;2022-10-19T01:29:51;99661.84;;;7.86;100.00
65897;BME280;52677;50.898;10.854;2022-10-19T01:32:08;99673.72;;;7.86;100.00
65897;BME280;52677;50.898;10.854;2022-10-19T01:34:44;99669.66;;;7.84;100.00
65897;BME280;52677;50.898;10.854;2022-10-19T01:37:01;99661.25;;;7.80;100.00
65897;BME280;52677;50.898;10.854;2022-10-19T01:39:19;99657.00;;;7.83;100.00
65897;BME280;52677;50.898;10.854;2022-10-19T01:41:29;99660.09;;;7.81;100.00
65897;BME280;52677;50.898;10.854;2022-10-19T01:43:52;99669.84;;;7.79;100.00
65897;BME280;52677;50.898;10.854;2022-10-19T01:46:10;99670.34;;;7.72;100.00
65897;BME280;52677;50.898;10.854;2022-10-19T01:48:29;99673.13;;;7.72;100.00
65897;BME280;52677;50.898;10.854;2022-10-19T01:52:38;99670.38;;;7.64;100.00
65897;BME280;52677;50.898;10.854;2022-10-19T01:54:43;99665.53;;;7.60;100.00
65897;BME280;52677;50.898;10.854;2022-10-19T01:56:46;99669.75;;;7.58;100.00
65897;BME280;52677;50.898;10.854;2022-10-19T01:58:49;99671.56;;;7.54;100.00
65897;BME280;52677;50.898;10.854;2022-10-19T02:00:51;99665.56;;;7.52;100.00
65897;BME280;52677;50.898;10.854;2022-10-19T02:02:53;99652.44;;;7.49;100.00
65897;BME280;52677;50.898;10.854;2022-10-19T02:04:55;99646.44;;;7.55;100.00
65897;BME280;52677;50.898;10.854;2022-10-19T02:06:57;99646.28;;;7.52;100.00
65897;BME280;52677;50.898;10.854;2022-10-19T02:08:57;99643.22;;;7.53;100.00
65897;BME280;52677;50.898;10.854;2022-10-19T02:10:58;99651.97;;;7.47;100.00
65897;BME280;52677;50.898;10.854;2022-10-19T02:13:01;99648.44;;;7.38;100.00
65897;BME280;52677;50.898;10.854;2022-10-19T02:15:08;99653.31;;;7.32;100.00
65897;BME280;52677;50.898;10.854;2022-10-19T02:17:12;99661.22;;;7.33;100.00
65897;BME280;52677;50.898;10.854;2022-10-19T02:19:14;99648.94;;;7.31;100.00
65897;BME280;52677;50.898;10.854;2022-10-19T02:21:16;99652.00;;;7.38;100.00
65897;BME280;52677;50.898;10.854;2022-10-19T02:23:20;99645.34;;;7.39;100.00
65897;BME280;52677;50.898;10.854;2022-10-19T02:25:22;99642.44;;;7.36;100.00
65897;BME280;52677;50.898;10.854;2022-10-19T02:27:23;99635.47;;;7.38;100.00
65897;BME280;52677;50.898;10.854;2022-10-19T02:29:23;99626.72;;;7.36;100.00
65897;BME280;52677;50.898;10.854;2022-10-19T02:31:24;99628.19;;;7.33;100.00
65897;BME280;52677;50.898;10.854;2022-10-19T02:33:26;99628.41;;;7.28;100.00
65897;BME280;52677;50.898;10.854;2022-10-19T02:35:27;99623.84;;;7.24;100.00
65897;BME280;52677;50.898;10.854;2022-10-19T02:37:27;99626.78;;;7.19;100.00
65897;BME280;52677;50.898;10.854;2022-10-19T02:39:28;99627.28;;;7.21;100.00
65897;BME280;52677;50.898;10.854;2022-10-19T02:41:41;99628.72;;;7.18;100.00
65897;BME280;52677;50.898;10.854;2022-10-19T02:43:47;99630.66;;;7.18;100.00
65897;BME280;52677;50.898;10.854;2022-10-19T02:45:57;99631.66;;;7.22;100.00
65897;BME280;52677;50.898;10.854;2022-10-19T02:48:02;99618.69;;;7.22;100.00
65897;BME280;52677;50.898;10.854;2022-10-19T02:50:06;99630.31;;;7.28;100.00
65897;BME280;52677;50.898;10.854;2022-10-19T02:52:09;99616.25;;;7.29;100.00
65897;BME280;52677;50.898;10.854;2022-10-19T02:54:10;99613.78;;;7.28;100.00
65897;BME280;52677;50.898;10.854;2022-10-19T02:56:10;99622.06;;;7.28;100.00
65897;BME280;52677;50.898;10.854;2022-10-19T02:58:10;99614.78;;;7.23;100.00
65897;BME280;52677;50.898;10.854;2022-10-19T03:00:11;99610.59;;;7.17;100.00
65897;BME280;52677;50.898;10.854;2022-10-19T03:02:12;99620.00;;;7.16;100.00
65897;BME280;52677;50.898;10.854;2022-10-19T03:04:13;99625.38;;;7.04;100.00
65897;BME280;52677;50.898;10.854;2022-10-19T03:06:13;99621.31;;;7.01;100.00
65897;BME280;52677;50.898;10.854;2022-10-19T03:08:13;99628.75;;;7.01;100.00
65897;BME280;52677;50.898;10.854;2022-10-19T03:10:13;99632.31;;;6.93;100.00
65897;BME280;52677;50.898;10.854;2022-10-19T03:12:14;99631.38;;;6.89;100.00
65897;BME280;52677;50.898;10.854;2022-10-19T03:14:14;99627.66;;;6.85;100.00
65897;BME280;52677;50.898;10.854;2022-10-19T03:16:14;99619.56;;;6.80;100.00
65897;BME280;52677;50.898;10.854;2022-10-19T03:18:15;99625.56;;;6.82;100.00
65897;BME280;52677;50.898;10.854;2022-10-19T03:20:15;99620.84;;;6.82;100.00
65897;BME280;52677;50.898;10.854;2022-10-19T03:22:15;99628.97;;;6.79;100.00
65897;BME280;52677;50.898;10.854;2022-10-19T03:24:16;99614.56;;;6.73;100.00
65897;BME280;52677;50.898;10.854;2022-10-19T03:26:17;99611.16;;;6.67;100.00
65897;BME280;52677;50.898;10.854;2022-10-19T03:28:17;99613.75;;;6.64;100.00
65897;BME280;52677;50.898;10.854;2022-10-19T03:30:18;99620.41;;;6.63;100.00
65897;BME280;52677;50.898;10.854;2022-10-19T03:32:18;99628.47;;;6.59;100.00
65897;BME280;52677;50.898;10.854;2022-10-19T03:34:18;99634.16;;;6.45;100.00
65897;BME280;52677;50.898;10.854;2022-10-19T03:36:22;99630.06;;;6.43;100.00
65897;BME280;52677;50.898;10.854;2022-10-19T03:38:23;99625.72;;;6.33;100.00
65897;BME280;52677;50.898;10.854;2022-10-19T03:40:23;99646.06;;;6.15;100.00
65897;BME280;52677;50.898;10.854;2022-10-19T03:42:23;99647.31;;;6.00;100.00
65897;BME280;52677;50.898;10.854;2022-10-19T03:44:24;99649.00;;;5.87;100.00
65897;BME280;52677;50.898;10.854;2022-10-19T03:46:24;99655.47;;;5.83;100.00
65897;BME280;52677;50.898;10.854;2022-10-19T03:48:25;99657.41;;;5.82;100.00
65897;BME280;52677;50.898;10.854;2022-10-19T03:50:25;99660.28;;;5.77;100.00
65897;BME280;52677;50.898;10.854;2022-10-19T03:52:25;99669.13;;;5.66;100.00
65897;BME280;52677;50.898;10.854;2022-10-19T03:54:26;99672.50;;;5.62;100.00
65897;BME280;52677;50.898;10.854;2022-10-19T03:56:27;99666.69;;;5.55;100.00
65897;BME280;52677;50.898;10.854;2022-10-19T03:58:28;99687.31;;;5.53;100.00
65897;BME280;52677;50.898;10.854;2022-10-19T04:00:30;99685.22;;;5.50;100.00
65897;BME280;52677;50.898;10.854;2022-10-19T04:02:30;99689.69;;;5.46;100.00
65897;BME280;52677;50.898;10.854;2022-10-19T04:04:30;99690.97;;;5.40;100.00
65897;BME280;52677;50.898;10.854;2022-10-19T04:06:33;99694.97;;;5.33;100.00
65897;BME280;52677;50.898;10.854;2022-10-19T04:08:34;99691.31;;;5.16;100.00
65897;BME280;52677;50.898;10.854;2022-10-19T04:10:35;99691.63;;;5.14;100.00
65897;BME280;52677;50.898;10.854;2022-10-19T04:12:35;99694.66;;;5.13;100.00
65897;BME280;52677;50.898;10.854;2022-10-19T04:14:35;99692.44;;;5.15;100.00
65897;BME280;52677;50.898;10.854;2022-10-19T04:16:37;99698.53;;;5.12;100.00
65897;BME280;52677;50.898;10.854;2022-10-19T04:18:37;99693.03;;;5.12;100.00
65897;BME280;52677;50.898;10.854;2022-10-19T04:20:37;99690.97;;;5.17;100.00
65897;BME280;52677;50.898;10.854;2022-10-19T04:22:41;99698.13;;;5.27;100.00
65897;BME280;52677;50.898;10.854;2022-10-19T04:24:42;99701.13;;;5.39;100.00
65897;BME280;52677;50.898;10.854;2022-10-19T04:26:47;99697.69;;;5.56;100.00
65897;BME280;52677;50.898;10.854;2022-10-19T04:28:48;99697.34;;;5.57;100.00
65897;BME280;52677;50.898;10.854;2022-10-19T04:30:48;99693.97;;;5.60;100.00
65897;BME280;52677;50.898;10.854;2022-10-19T04:32:49;99689.81;;;5.63;100.00
65897;BME280;52677;50.898;10.854;2022-10-19T04:34:49;99696.75;;;5.69;100.00
65897;BME280;52677;50.898;10.854;2022-10-19T04:36:49;99707.28;;;5.76;100.00
65897;BME280;52677;50.898;10.854;2022-10-19T04:38:50;99696.19;;;5.81;100.00
65897;BME280;52677;50.898;10.854;2022-10-19T04:40:51;99702.47;;;5.81;100.00
65897;BME280;52677;50.898;10.854;2022-10-19T04:42:51;99692.66;;;5.89;100.00
65897;BME280;52677;50.898;10.854;2022-10-19T04:44:51;99698.69;;;6.00;100.00
65897;BME280;52677;50.898;10.854;2022-10-19T04:46:52;99703.56;;;6.11;100.00
65897;BME280;52677;50.898;10.854;2022-10-19T04:48:53;99698.28;;;6.24;100.00
65897;BME280;52677;50.898;10.854;2022-10-19T04:50:53;99705.75;;;6.32;100.00
65897;BME280;52677;50.898;10.854;2022-10-19T04:52:54;99704.94;;;6.31;100.00
65897;BME280;52677;50.898;10.854;2022-10-19T04:54:54;99702.69;;;6.33;100.00
65897;BME280;52677;50.898;10.854;2022-10-19T04:56:55;99707.38;;;6.33;100.00
65897;BME280;52677;50.898;10.854;2022-10-19T04:58:56;99702.19;;;6.31;100.00
65897;BME280;52677;50.898;10.854;2022-10-19T05:00:57;99703.47;;;6.34;100.00
65897;BME280;52677;50.898;10.854;2022-10-19T05:02:57;99700.72;;;6.34;100.00
65897;BME280;52677;50.898;10.854;2022-10-19T05:04:57;99698.78;;;6.34;100.00
65897;BME280;52677;50.898;10.854;2022-10-19T05:06:57;99697.19;;;6.33;100.00
65897;BME280;52677;50.898;10.854;2022-10-19T05:08:58;99700.59;;;6.39;100.00
65897;BME280;52677;50.898;10.854;2022-10-19T05:11:03;99695.72;;;6.36;100.00
65897;BME280;52677;50.898;10.854;2022-10-19T05:13:04;99715.47;;;6.38;100.00
65897;BME280;52677;50.898;10.854;2022-10-19T05:15:05;99703.47;;;6.34;100.00
65897;BME280;52677;50.898;10.854;2022-10-19T05:17:05;99703.63;;;6.29;100.00
65897;BME280;52677;50.898;10.854;2022-10-19T05:19:05;99698.13;;;6.29;100.00
65897;BME280;52677;50.898;10.854;2022-10-19T05:21:11;99697.97;;;6.25;100.00
65897;BME280;52677;50.898;10.854;2022-10-19T05:23:12;99688.91;;;6.25;100.00
65897;BME280;52677;50.898;10.854;2022-10-19T05:25:12;99681.13;;;6.18;100.00
65897;BME280;52677;50.898;10.854;2022-10-19T05:27:13;99689.84;;;6.11;100.00
65897;BME280;52677;50.898;10.854;2022-10-19T05:29:13;99691.78;;;6.11;100.00
65897;BME280;52677;50.898;10.854;2022-10-19T05:31:18;99693.09;;;6.13;100.00
65897;BME280;52677;50.898;10.854;2022-10-19T05:33:19;99697.94;;;6.16;100.00
65897;BME280;52677;50.898;10.854;2022-10-19T05:35:19;99699.75;;;6.21;100.00
65897;BME280;52677;50.898;10.854;2022-10-19T05:37:20;99697.47;;;6.23;100.00
65897;BME280;52677;50.898;10.854;2022-10-19T05:39:21;99706.69;;;6.27;100.00
65897;BME280;52677;50.898;10.854;2022-10-19T05:41:23;99702.81;;;6.28;100.00
65897;BME280;52677;50.898;10.854;2022-10-19T05:43:24;99695.88;;;6.31;100.00
65897;BME280;52677;50.898;10.854;2022-10-19T05:45:24;99705.09;;;6.35;100.00
65897;BME280;52677;50.898;10.854;2022-10-19T05:47:24;99706.22;;;6.34;100.00
65897;BME280;52677;50.898;10.854;2022-10-19T05:49:24;99702.84;;;6.37;100.00
65897;BME280;52677;50.898;10.854;2022-10-19T05:51:26;99702.22;;;6.40;100.00
65897;BME280;52677;50.898;10.854;2022-10-19T05:53:27;99698.81;;;6.43;100.00
65897;BME280;52677;50.898;10.854;2022-10-19T05:55:28;99705.31;;;6.47;100.00
65897;BME280;52677;50.898;10.854;2022-10-19T05:57:30;99698.66;;;6.48;100.00
65897;BME280;52677;50.898;10.854;2022-10-19T05:59:31;99703.34;;;6.47;100.00
65897;BME280;52677;50.898;10.854;2022-10-19T06:01:32;99705.78;;;6.49;100.00
65897;BME280;52677;50.898;10.854;2022-10-19T06:03:32;99703.03;;;6.49;100.00
65897;BME280;52677;50.898;10.854;2022-10-19T06:05:35;99701.91;;;6.50;100.00
65897;BME280;52677;50.898;10.854;2022-10-19T06:07:35;99699.31;;;6.54;100.00
65897;BME280;52677;50.898;10.854;2022-10-19T06:09:36;99707.72;;;6.57;100.00
65897;BME280;52677;50.898;10.854;2022-10-19T06:11:39;99702.72;;;6.59;100.00
65897;BME280;52677;50.898;10.854;2022-10-19T06:13:41;99700.94;;;6.55;100.00
65897;BME280;52677;50.898;10.854;2022-10-19T06:15:41;99696.88;;;6.43;100.00
65897;BME280;52677;50.898;10.854;2022-10-19T06:17:42;99705.78;;;6.49;100.00
65897;BME280;52677;50.898;10.854;2022-10-19T06:19:42;99710.47;;;6.48;100.00
65897;BME280;52677;50.898;10.854;2022-10-19T06:21:43;99711.41;;;6.44;100.00
65897;BME280;52677;50.898;10.854;2022-10-19T06:23:44;99708.03;;;6.38;100.00
65897;BME280;52677;50.898;10.854;2022-10-19T06:25:48;99716.91;;;6.35;100.00
65897;BME280;52677;50.898;10.854;2022-10-19T06:27:49;99708.16;;;6.25;100.00
65897;BME280;52677;50.898;10.854;2022-10-19T06:29:49;99707.47;;;6.19;100.00
65897;BME280;52677;50.898;10.854;2022-10-19T06:31:49;99707.31;;;6.15;100.00
65897;BME280;52677;50.898;10.854;2022-10-19T06:33:51;99712.63;;;6.12;100.00
65897;BME280;52677;50.898;10.854;2022-10-19T06:35:51;99719.91;;;6.08;100.00
65897;BME280;52677;50.898;10.854;2022-10-19T06:37:51;99722.66;;;6.08;100.00
65897;BME280;52677;50.898;10.854;2022-10-19T06:39:52;99737.03;;;6.05;100.00
65897;BME280;52677;50.898;10.854;2022-10-19T06:41:52;99738.97;;;6.04;100.00
65897;BME280;52677;50.898;10.854;2022-10-19T06:43:53;99731.84;;;6.03;100.00
65897;BME280;52677;50.898;10.854;2022-10-19T06:45:54;99725.38;;;5.99;100.00
65897;BME280;52677;50.898;10.854;2022-10-19T06:47:55;99737.66;;;6.02;100.00
65897;BME280;52677;50.898;10.854;2022-10-19T06:49:56;99736.50;;;6.03;100.00
65897;BME280;52677;50.898;10.854;2022-10-19T06:51:56;99741.22;;;6.02;100.00
65897;BME280;52677;50.898;10.854;2022-10-19T06:53:56;99742.81;;;6.03;100.00
65897;BME280;52677;50.898;10.854;2022-10-19T06:55:57;99740.59;;;6.05;100.00
65897;BME280;52677;50.898;10.854;2022-10-19T06:57:58;99736.38;;;6.08;100.00
65897;BME280;52677;50.898;10.854;2022-10-19T07:00:00;99744.50;;;6.13;100.00
65897;BME280;52677;50.898;10.854;2022-10-19T07:02:01;99738.34;;;6.16;100.00
65897;BME280;52677;50.898;10.854;2022-10-19T07:04:01;99744.53;;;6.22;100.00
65897;BME280;52677;50.898;10.854;2022-10-19T07:06:04;99745.00;;;6.24;100.00
65897;BME280;52677;50.898;10.854;2022-10-19T07:08:05;99739.69;;;6.27;100.00
65897;BME280;52677;50.898;10.854;2022-10-19T07:10:05;99743.91;;;6.33;100.00
65897;BME280;52677;50.898;10.854;2022-10-19T07:12:06;99743.78;;;6.38;100.00
65897;BME280;52677;50.898;10.854;2022-10-19T07:14:07;99745.06;;;6.41;100.00
65897;BME280;52677;50.898;10.854;2022-10-19T07:16:13;99754.47;;;6.48;100.00
65897;BME280;52677;50.898;10.854;2022-10-19T07:18:14;99756.06;;;6.50;100.00
65897;BME280;52677;50.898;10.854;2022-10-19T07:20:14;99758.50;;;6.51;100.00
65897;BME280;52677;50.898;10.854;2022-10-19T07:22:15;99759.63;;;6.50;100.00
65897;BME280;52677;50.898;10.854;2022-10-19T07:24:15;99757.69;;;6.51;100.00
65897;BME280;52677;50.898;10.854;2022-10-19T07:26:21;99754.81;;;6.56;100.00
65897;BME280;52677;50.898;10.854;2022-10-19T07:28:22;99755.63;;;6.56;100.00
65897;BME280;52677;50.898;10.854;2022-10-19T07:30:23;99748.00;;;6.53;100.00
65897;BME280;52677;50.898;10.854;2022-10-19T07:32:23;99747.03;;;6.58;100.00
65897;BME280;52677;50.898;10.854;2022-10-19T07:34:24;99745.09;;;6.58;100.00
65897;BME280;52677;50.898;10.854;2022-10-19T07:36:25;99755.97;;;6.63;100.00
65897;BME280;52677;50.898;10.854;2022-10-19T07:38:26;99760.47;;;6.68;100.00
65897;BME280;52677;50.898;10.854;2022-10-19T07:40:26;99752.56;;;6.66;100.00
65897;BME280;52677;50.898;10.854;2022-10-19T07:42:27;99750.78;;;6.70;100.00
65897;BME280;52677;50.898;10.854;2022-10-19T07:44:29;99750.63;;;6.75;100.00
65897;BME280;52677;50.898;10.854;2022-10-19T07:46:31;99748.53;;;6.81;100.00
65897;BME280;52677;50.898;10.854;2022-10-19T07:48:33;99751.09;;;6.86;100.00
65897;BME280;52677;50.898;10.854;2022-10-19T07:50:34;99755.19;;;6.89;100.00
65897;BME280;52677;50.898;10.854;2022-10-19T07:52:34;99756.00;;;6.89;100.00
65897;BME280;52677;50.898;10.854;2022-10-19T07:54:34;99755.50;;;6.96;100.00
65897;BME280;52677;50.898;10.854;2022-10-19T07:56:35;99749.03;;;7.00;100.00
65897;BME280;52677;50.898;10.854;2022-10-19T07:58:36;99753.56;;;7.05;100.00
65897;BME280;52677;50.898;10.854;2022-10-19T08:00:36;99747.59;;;7.12;100.00
65897;BME280;52677;50.898;10.854;2022-10-19T08:02:36;99756.47;;;7.17;100.00
65897;BME280;52677;50.898;10.854;2022-10-19T08:04:37;99748.06;;;7.22;100.00
65897;BME280;52677;50.898;10.854;2022-10-19T08:06:38;99758.09;;;7.27;100.00
65897;BME280;52677;50.898;10.854;2022-10-19T08:08:39;99759.88;;;7.31;100.00
65897;BME280;52677;50.898;10.854;2022-10-19T08:10:39;99760.66;;;7.41;100.00
65897;BME280;52677;50.898;10.854;2022-10-19T08:12:39;99761.66;;;7.45;100.00
65897;BME280;52677;50.898;10.854;2022-10-19T08:14:40;99762.59;;;7.49;100.00
65897;BME280;52677;50.898;10.854;2022-10-19T08:16:40;99761.13;;;7.51;100.00
65897;BME280;52677;50.898;10.854;2022-10-19T08:18:43;99767.75;;;7.59;100.00
65897;BME280;52677;50.898;10.854;2022-10-19T08:20:43;99766.00;;;7.63;100.00
65897;BME280;52677;50.898;10.854;2022-10-19T08:22:43;99773.25;;;7.68;100.00
65897;BME280;52677;50.898;10.854;2022-10-19T08:24:44;99775.38;;;7.71;100.00
65897;BME280;52677;50.898;10.854;2022-10-19T08:26:44;99766.59;;;7.77;100.00
65897;BME280;52677;50.898;10.854;2022-10-19T08:28:45;99765.75;;;7.85;100.00
65897;BME280;52677;50.898;10.854;2022-10-19T08:30:46;99764.91;;;7.94;100.00
65897;BME280;52677;50.898;10.854;2022-10-19T08:32:46;99763.59;;;8.00;100.00
65897;BME280;52677;50.898;10.854;2022-10-19T08:34:46;99761.16;;;8.07;100.00
65897;BME280;52677;50.898;10.854;2022-10-19T08:36:46;99752.06;;;8.06;100.00
65897;BME280;52677;50.898;10.854;2022-10-19T08:38:47;99758.69;;;8.14;100.00
65897;BME280;52677;50.898;10.854;2022-10-19T08:40:48;99748.16;;;8.16;100.00
65897;BME280;52677;50.898;10.854;2022-10-19T08:42:59;99750.84;;;8.25;100.00
65897;BME280;52677;50.898;10.854;2022-10-19T08:45:14;99751.50;;;8.30;100.00
65897;BME280;52677;50.898;10.854;2022-10-19T08:49:36;99751.94;;;8.41;100.00
65897;BME280;52677;50.898;10.854;2022-10-19T08:51:38;99743.97;;;8.48;100.00
65897;BME280;52677;50.898;10.854;2022-10-19T08:58:12;99755.13;;;8.52;100.00
65897;BME280;52677;50.898;10.854;2022-10-19T09:02:52;99744.91;;;8.52;100.00
65897;BME280;52677;50.898;10.854;2022-10-19T09:05:00;99740.06;;;8.49;100.00
65897;BME280;52677;50.898;10.854;2022-10-19T09:07:23;99746.53;;;8.53;100.00
65897;BME280;52677;50.898;10.854;2022-10-19T09:09:24;99749.28;;;8.53;100.00
65897;BME280;52677;50.898;10.854;2022-10-19T09:11:28;99749.75;;;8.55;100.00
65897;BME280;52677;50.898;10.854;2022-10-19T09:13:43;99742.63;;;8.54;100.00
65897;BME280;52677;50.898;10.854;2022-10-19T09:15:48;99744.88;;;8.61;100.00
65897;BME280;52677;50.898;10.854;2022-10-19T09:17:49;99733.50;;;8.62;100.00
65897;BME280;52677;50.898;10.854;2022-10-19T09:19:50;99742.38;;;8.68;100.00
65897;BME280;52677;50.898;10.854;2022-10-19T09:21:56;99729.06;;;8.70;100.00
65897;BME280;52677;50.898;10.854;2022-10-19T09:24:05;99738.97;;;8.71;100.00
65897;BME280;52677;50.898;10.854;2022-10-19T09:26:19;99742.66;;;8.75;100.00
65897;BME280;52677;50.898;10.854;2022-10-19T09:30:43;99739.19;;;8.87;100.00
65897;BME280;52677;50.898;10.854;2022-10-19T09:32:46;99728.25;;;8.90;100.00
65897;BME280;52677;50.898;10.854;2022-10-19T09:35:00;99731.41;;;9.01;100.00
65897;BME280;52677;50.898;10.854;2022-10-19T09:37:01;99734.78;;;9.07;100.00
65897;BME280;52677;50.898;10.854;2022-10-19T09:39:02;99727.56;;;9.14;100.00
65897;BME280;52677;50.898;10.854;2022-10-19T09:41:14;99738.34;;;9.28;100.00
65897;BME280;52677;50.898;10.854;2022-10-19T09:43:16;99744.72;;;9.41;100.00
65897;BME280;52677;50.898;10.854;2022-10-19T09:45:46;99739.44;;;9.48;100.00
65897;BME280;52677;50.898;10.854;2022-10-19T09:47:49;99741.06;;;9.49;100.00
65897;BME280;52677;50.898;10.854;2022-10-19T09:49:49;99749.50;;;9.52;100.00
65897;BME280;52677;50.898;10.854;2022-10-19T09:51:50;99750.22;;;9.62;100.00
65897;BME280;52677;50.898;10.854;2022-10-19T09:53:57;99736.16;;;9.67;100.00
65897;BME280;52677;50.898;10.854;2022-10-19T09:56:03;99733.66;;;9.74;100.00
65897;BME280;52677;50.898;10.854;2022-10-19T10:00:24;99737.47;;;9.81;100.00
65897;BME280;52677;50.898;10.854;2022-10-19T10:02:31;99744.84;;;9.90;100.00
65897;BME280;52677;50.898;10.854;2022-10-19T10:04:31;99729.53;;;9.92;100.00
65897;BME280;52677;50.898;10.854;2022-10-19T10:06:37;99739.56;;;9.97;100.00
65897;BME280;52677;50.898;10.854;2022-10-19T10:08:39;99732.44;;;10.08;100.00
65897;BME280;52677;50.898;10.854;2022-10-19T10:13:03;99732.09;;;10.22;100.00
65897;BME280;52677;50.898;10.854;2022-10-19T10:15:05;99732.03;;;10.30;100.00
65897;BME280;52677;50.898;10.854;2022-10-19T10:17:13;99731.00;;;10.35;99.34
65897;BME280;52677;50.898;10.854;2022-10-19T10:19:15;99731.69;;;10.44;99.66
65897;BME280;52677;50.898;10.854;2022-10-19T10:23:26;99722.19;;;10.57;97.49
65897;BME280;52677;50.898;10.854;2022-10-19T10:25:29;99729.69;;;10.57;93.83
65897;BME280;52677;50.898;10.854;2022-10-19T10:27:33;99722.91;;;10.54;92.69
65897;BME280;52677;50.898;10.854;2022-10-19T10:29:36;99728.31;;;10.51;93.04
65897;BME280;52677;50.898;10.854;2022-10-19T10:31:36;99729.25;;;10.55;94.85
65897;BME280;52677;50.898;10.854;2022-10-19T10:33:37;99730.16;;;10.59;97.56
65897;BME280;52677;50.898;10.854;2022-10-19T10:35:37;99727.06;;;10.60;97.04
65897;BME280;52677;50.898;10.854;2022-10-19T10:37:40;99725.19;;;10.64;95.27
65897;BME280;52677;50.898;10.854;2022-10-19T10:39:41;99729.34;;;10.71;94.30
65897;BME280;52677;50.898;10.854;2022-10-19T10:41:43;99727.47;;;10.75;90.70
65897;BME280;52677;50.898;10.854;2022-10-19T10:45:53;99725.59;;;10.91;91.97
65897;BME280;52677;50.898;10.854;2022-10-19T10:47:53;99722.81;;;11.03;90.09
65897;BME280;52677;50.898;10.854;2022-10-19T10:50:02;99726.03;;;11.05;89.72
65897;BME280;52677;50.898;10.854;2022-10-19T10:52:09;99727.56;;;11.03;90.24
65897;BME280;52677;50.898;10.854;2022-10-19T10:56:27;99712.13;;;10.89;90.42
65897;BME280;52677;50.898;10.854;2022-10-19T10:58:43;99712.59;;;10.79;88.81
65897;BME280;52677;50.898;10.854;2022-10-19T11:00:47;99710.31;;;10.69;89.09
65897;BME280;52677;50.898;10.854;2022-10-19T11:02:55;99706.75;;;10.68;91.24
65897;BME280;52677;50.898;10.854;2022-10-19T11:05:10;99717.25;;;10.63;89.60
65897;BME280;52677;50.898;10.854;2022-10-19T11:07:23;99705.16;;;10.55;86.30
65897;BME280;52677;50.898;10.854;2022-10-19T11:09:28;99718.28;;;10.58;89.73
65897;BME280;52677;50.898;10.854;2022-10-19T11:11:42;99709.53;;;10.56;89.93
65897;BME280;52677;50.898;10.854;2022-10-19T11:14:09;99702.47;;;10.59;90.46
65897;BME280;52677;50.898;10.854;2022-10-19T11:16:16;99706.28;;;10.66;90.74
65897;BME280;52677;50.898;10.854;2022-10-19T11:18:26;99699.63;;;10.67;88.62
65897;BME280;52677;50.898;10.854;2022-10-19T11:20:29;99688.84;;;10.78;87.07